sensor_id;sensor_type;location;lat;lon;timestamp;pressure;altitude;pressure_sealevel;temperature;humidity
73171;BME280;61381;50.118;19.962;2022-07-22T00:05:00;98720.44;;;20.71;53.18
73171;BME280;61381;50.118;19.962;2022-07-22T00:10:00;98718.25;;;20.76;53.07
73171;BME280;61381;50.118;19.962;2022-07-22T00:15:02;98725.19;;;20.74;53.28
73171;BME280;61381;50.118;19.962;2022-07-22T00:20:04;98733.59;;;20.69;53.18
73171;BME280;61381;50.118;19.962;2022-07-22T00:25:06;98755.13;;;19.96;57.23
73171;BME280;61381;50.118;19.962;2022-07-22T00:30:07;98747.09;;;19.41;59.44
73171;BME280;61381;50.118;19.962;2022-07-22T00:35:08;98737.72;;;19.39;59.70
73171;BME280;61381;50.118;19.962;2022-07-22T00:40:09;98739.16;;;19.24;59.87
73171;BME280;61381;50.118;19.962;2022-07-22T00:45:10;98743.78;;;18.69;64.08
73171;BME280;61381;50.118;19.962;2022-07-22T00:50:11;98735.34;;;18.41;63.95
73171;BME280;61381;50.118;19.962;2022-07-22T00:55:12;98733.28;;;18.38;64.25
73171;BME280;61381;50.118;19.962;2022-07-22T01:00:16;98728.94;;;18.87;61.26
73171;BME280;61381;50.118;19.962;2022-07-22T01:05:17;98735.53;;;19.32;59.25
73171;BME280;61381;50.118;19.962;2022-07-22T01:10:18;98739.59;;;19.26;59.13
73171;BME280;61381;50.118;19.962;2022-07-22T01:15:19;98745.94;;;19.30;59.14
73171;BME280;61381;50.118;19.962;2022-07-22T01:20:20;98745.00;;;19.14;60.23
73171;BME280;61381;50.118;19.962;2022-07-22T01:25:20;98748.88;;;18.92;60.91
73171;BME280;61381;50.118;19.962;2022-07-22T01:30:21;98756.13;;;18.36;65.43
73171;BME280;61381;50.118;19.962;2022-07-22T01:35:22;98747.00;;;17.81;66.77
73171;BME280;61381;50.118;19.962;2022-07-22T01:40:22;98740.28;;;17.49;70.34
73171;BME280;61381;50.118;19.962;2022-07-22T01:45:23;98739.78;;;17.47;69.91
73171;BME280;61381;50.118;19.962;2022-07-22T01:50:24;98731.94;;;17.07;70.70
73171;BME280;61381;50.118;19.962;2022-07-22T01:55:25;98729.66;;;18.12;65.01
73171;BME280;61381;50.118;19.962;2022-07-22T02:00:25;98723.25;;;18.17;66.32
73171;BME280;61381;50.118;19.962;2022-07-22T02:05:26;98725.34;;;17.73;67.16
73171;BME280;61381;50.118;19.962;2022-07-22T02:10:27;98722.41;;;17.95;65.57
73171;BME280;61381;50.118;19.962;2022-07-22T02:15:28;98720.41;;;18.56;63.86
73171;BME280;61381;50.118;19.962;2022-07-22T02:20:29;98730.44;;;17.27;70.71
73171;BME280;61381;50.118;19.962;2022-07-22T02:25:30;98733.84;;;16.89;72.18
73171;BME280;61381;50.118;19.962;2022-07-22T02:30:30;98767.03;;;16.19;75.38
73171;BME280;61381;50.118;19.962;2022-07-22T02:35:32;98772.25;;;16.07;75.25
73171;BME280;61381;50.118;19.962;2022-07-22T02:40:32;98756.88;;;16.25;74.45
73171;BME280;61381;50.118;19.962;2022-07-22T02:45:34;98767.19;;;16.14;75.29
73171;BME280;61381;50.118;19.962;2022-07-22T02:50:34;98760.19;;;16.13;75.54
73171;BME280;61381;50.118;19.962;2022-07-22T02:55:35;98740.19;;;16.40;73.66
73171;BME280;61381;50.118;19.962;2022-07-22T03:00:36;98741.50;;;16.69;72.06
73171;BME280;61381;50.118;19.962;2022-07-22T03:05:37;98758.09;;;16.10;75.77
73171;BME280;61381;50.118;19.962;2022-07-22T03:10:38;98761.09;;;15.91;76.92
73171;BME280;61381;50.118;19.962;2022-07-22T03:15:39;98785.84;;;15.84;77.35
73171;BME280;61381;50.118;19.962;2022-07-22T03:20:39;98811.41;;;15.78;77.98
73171;BME280;61381;50.118;19.962;2022-07-22T03:25:40;98817.91;;;15.77;78.26
73171;BME280;61381;50.118;19.962;2022-07-22T03:30:41;98804.06;;;15.79;77.52
73171;BME280;61381;50.118;19.962;2022-07-22T03:35:41;98805.78;;;15.97;77.55
73171;BME280;61381;50.118;19.962;2022-07-22T03:40:42;98798.66;;;16.10;77.00
73171;BME280;61381;50.118;19.962;2022-07-22T03:45:42;98805.50;;;16.16;77.72
73171;BME280;61381;50.118;19.962;2022-07-22T03:50:43;98798.75;;;16.45;77.02
73171;BME280;61381;50.118;19.962;2022-07-22T03:55:44;98787.78;;;16.76;76.33
73171;BME280;61381;50.118;19.962;2022-07-22T04:00:44;98798.19;;;17.18;76.27
73171;BME280;61381;50.118;19.962;2022-07-22T04:05:45;98803.81;;;18.16;72.69
73171;BME280;61381;50.118;19.962;2022-07-22T04:10:46;98808.72;;;18.53;71.22
73171;BME280;61381;50.118;19.962;2022-07-22T04:15:47;98803.97;;;18.92;70.19
73171;BME280;61381;50.118;19.962;2022-07-22T04:20:47;98820.59;;;19.12;69.63
73171;BME280;61381;50.118;19.962;2022-07-22T04:25:48;98814.78;;;19.34;69.35
73171;BME280;61381;50.118;19.962;2022-07-22T04:30:48;98815.34;;;19.73;67.76
73171;BME280;61381;50.118;19.962;2022-07-22T04:35:49;98815.53;;;20.14;66.66
73171;BME280;61381;50.118;19.962;2022-07-22T04:40:50;98818.25;;;20.39;66.68
73171;BME280;61381;50.118;19.962;2022-07-22T04:45:50;98813.97;;;20.91;65.66
73171;BME280;61381;50.118;19.962;2022-07-22T04:50:51;98812.25;;;21.55;63.75
73171;BME280;61381;50.118;19.962;2022-07-22T04:55:52;98816.22;;;21.73;63.14
73171;BME280;61381;50.118;19.962;2022-07-22T05:00:52;98814.28;;;21.74;63.67
73171;BME280;61381;50.118;19.962;2022-07-22T05:05:53;98803.47;;;22.25;62.00
